Terminal Aerodrome Forecast
Issued by NWS

Home | Current Version | Previous Version | Text Only | Print | Product List | Glossary On
Versions: 1 2 3 4 5 6 7 8 9 10 11 12 13 14 15 16 17 18 19 20
000
FTUS43 KLSX 291500 AAA
TAFSUS
TAF AMD
KSUS 291512Z 2915/3012 21014G22KT P6SM SCT120 BKN200
     FM291800 22012G22KT P6SM VCSH BKN100
      TEMPO 2919/2922 6SM -SHRA SCT050 BKN100
     FM292300 25007KT P6SM VCSH BKN120
     FM300200 28004KT P6SM SKC=

USA.gov is the U.S. government's official web portal to all federal, state and local government web resources and services.